createdAt,value
2017-04-20T00:00:50.729Z,0
2017-04-20T00:02:01.045Z,0
2017-04-20T00:03:11.366Z,0
2017-04-20T00:04:21.694Z,0
2017-04-20T00:05:32.020Z,0
2017-04-20T00:06:42.603Z,0
2017-04-20T00:07:53.084Z,0
2017-04-20T00:09:03.421Z,0
2017-04-20T00:10:13.737Z,0
2017-04-20T00:11:24.114Z,0
2017-04-20T00:12:33.823Z,0
2017-04-20T00:13:44.206Z,0
2017-04-20T00:14:54.581Z,0
2017-04-20T00:16:04.904Z,0
2017-04-20T00:17:14.916Z,0
2017-04-20T00:18:25.266Z,0
2017-04-20T00:19:34.969Z,0
2017-04-20T00:20:45.287Z,0
2017-04-20T00:21:55.847Z,0
2017-04-20T00:23:05.855Z,0
2017-04-20T00:24:15.908Z,0
2017-04-20T00:25:26.256Z,0
2017-04-20T00:26:36.590Z,0
2017-04-20T00:27:46.922Z,0
2017-04-20T00:28:57.270Z,0
2017-04-20T00:30:07.610Z,0
2017-04-20T00:31:17.926Z,0
2017-04-20T00:32:28.260Z,0
2017-04-20T00:33:38.584Z,0
2017-04-20T00:34:48.909Z,0
2017-04-20T00:35:59.241Z,0
2017-04-20T00:37:09.565Z,0
2017-04-20T00:38:19.895Z,0
2017-04-20T00:39:30.254Z,0
2017-04-20T00:40:40.589Z,0
2017-04-20T00:41:50.912Z,0
2017-04-20T00:43:00.927Z,0
2017-04-20T00:44:11.266Z,0
2017-04-20T00:45:21.603Z,0
2017-04-20T00:46:31.309Z,0
2017-04-20T00:47:41.675Z,0
2017-04-20T00:48:51.389Z,0
2017-04-20T00:50:01.400Z,0
2017-04-20T00:51:11.767Z,0
2017-04-20T00:52:22.082Z,0
2017-04-20T00:53:32.412Z,0
2017-04-20T00:54:42.436Z,0
2017-04-20T00:55:52.778Z,0
2017-04-20T00:57:02.482Z,0
2017-04-20T00:58:12.499Z,0
2017-04-20T00:59:22.820Z,0
2017-04-20T01:00:33.149Z,0
2017-04-20T01:01:43.166Z,0
2017-04-20T01:02:53.499Z,0
2017-04-20T01:04:04.089Z,0
2017-04-20T01:05:14.313Z,0
2017-04-20T01:06:24.937Z,0
2017-04-20T01:07:34.965Z,0
2017-04-20T01:08:44.653Z,0
2017-04-20T01:09:54.974Z,0
2017-04-20T01:11:05.297Z,0
2017-04-20T01:12:15.621Z,0
2017-04-20T01:13:25.936Z,0
2017-04-20T01:14:36.253Z,0
2017-04-20T01:15:46.253Z,0
2017-04-20T01:16:56.585Z,0
2017-04-20T01:18:06.617Z,0
2017-04-20T01:19:16.944Z,0
2017-04-20T01:20:26.650Z,0
2017-04-20T01:21:36.970Z,0
2017-04-20T01:22:47.312Z,0
2017-04-20T01:23:57.625Z,0
2017-04-20T01:25:07.955Z,0
2017-04-20T01:26:18.282Z,0
2017-04-20T01:27:28.635Z,0
2017-04-20T01:28:38.960Z,0
2017-04-20T01:29:48.962Z,0
2017-04-20T01:30:59.295Z,0
2017-04-20T01:32:09.335Z,0
2017-04-20T01:33:45.023Z,0
2017-04-20T01:34:55.340Z,0
2017-04-20T01:36:05.686Z,0
2017-04-20T01:37:16.013Z,0
2017-04-20T01:38:26.034Z,0
2017-04-20T01:39:36.359Z,0
2017-04-20T01:40:46.365Z,0
2017-04-20T01:41:56.698Z,0
2017-04-20T01:43:07.031Z,0
2017-04-20T01:44:17.356Z,0
2017-04-20T01:45:27.711Z,0
2017-04-20T01:46:38.048Z,0
2017-04-20T01:47:48.381Z,0
2017-04-20T01:48:58.714Z,0
2017-04-20T01:50:09.055Z,0
2017-04-20T01:51:19.359Z,0
2017-04-20T01:52:29.737Z,0
2017-04-20T01:53:39.758Z,0
2017-04-20T01:54:50.084Z,0
2017-04-20T01:56:00.426Z,0
2017-04-20T01:57:10.806Z,0
2017-04-20T01:58:21.155Z,0
2017-04-20T01:59:31.502Z,0
2017-04-20T02:00:41.823Z,0
2017-04-20T02:01:52.140Z,0
2017-04-20T02:03:02.475Z,0
2017-04-20T02:04:12.506Z,0
2017-04-20T02:05:22.531Z,0
2017-04-20T02:06:32.548Z,0
2017-04-20T02:07:42.877Z,0
2017-04-20T02:08:53.209Z,0
2017-04-20T02:10:02.904Z,0
2017-04-20T02:11:12.633Z,0
2017-04-20T02:12:22.964Z,0
2017-04-20T02:13:33.301Z,0
2017-04-20T02:14:43.640Z,0
2017-04-20T02:15:53.980Z,0
2017-04-20T02:17:04.327Z,0
2017-04-20T02:18:14.663Z,0
2017-04-20T02:19:25.007Z,0
2017-04-20T02:20:35.338Z,0
2017-04-20T02:21:45.773Z,0
2017-04-20T02:22:55.903Z,0
2017-04-20T02:24:06.246Z,0
2017-04-20T02:25:16.287Z,0
2017-04-20T02:26:26.607Z,0
2017-04-20T02:27:36.627Z,0
2017-04-20T02:28:46.362Z,0
2017-04-20T02:29:56.721Z,0
2017-04-20T02:31:07.084Z,0
2017-04-20T02:32:17.099Z,0
2017-04-20T02:33:27.432Z,0
2017-04-20T02:34:37.767Z,0
2017-04-20T02:35:48.101Z,0
2017-04-20T02:36:58.117Z,0
2017-04-20T02:38:08.449Z,0
2017-04-20T02:39:18.814Z,0
2017-04-20T02:40:29.172Z,0
2017-04-20T02:41:39.505Z,0
2017-04-20T02:42:49.827Z,0
2017-04-20T02:44:00.194Z,0
2017-04-20T02:45:10.523Z,0
2017-04-20T02:46:20.557Z,0
2017-04-20T02:47:30.886Z,0
2017-04-20T02:48:40.930Z,0
2017-04-20T02:49:51.276Z,0
2017-04-20T02:51:01.654Z,0
2017-04-20T02:52:11.968Z,0
2017-04-20T02:53:22.326Z,0
2017-04-20T02:54:32.681Z,0
2017-04-20T02:55:43.232Z,0
2017-04-20T02:56:53.571Z,0
2017-04-20T02:58:03.588Z,0
2017-04-20T02:59:13.953Z,0
2017-04-20T03:00:24.277Z,0
2017-04-20T03:01:34.634Z,0
2017-04-20T03:33:14.935Z,0
2017-04-20T03:34:25.241Z,0
2017-04-20T03:35:35.577Z,0
2017-04-20T03:36:45.918Z,0
2017-04-20T03:37:56.257Z,0
2017-04-20T03:39:06.610Z,0
2017-04-20T03:40:16.937Z,0
2017-04-20T03:41:26.957Z,0
2017-04-20T03:42:37.273Z,0
2017-04-20T03:43:47.285Z,0
2017-04-20T03:44:57.312Z,0
2017-04-20T03:46:07.660Z,0
2017-04-20T03:47:17.985Z,0
2017-04-20T03:48:28.317Z,0
2017-04-20T03:49:38.332Z,0
2017-04-20T03:50:48.335Z,0
2017-04-20T03:51:58.667Z,0
2017-04-20T03:53:08.375Z,0
2017-04-20T03:54:18.394Z,0
2017-04-20T03:55:28.722Z,0
2017-04-20T03:56:38.488Z,0
2017-04-20T03:57:48.845Z,0
2017-04-20T03:58:59.222Z,0
2017-04-20T04:00:09.573Z,0
2017-04-20T04:01:19.902Z,0
2017-04-20T04:02:30.226Z,0
2017-04-20T04:03:40.621Z,0
2017-04-20T04:04:50.950Z,0
2017-04-20T04:06:00.976Z,0
2017-04-20T04:07:11.329Z,0
2017-04-20T04:08:21.048Z,0
2017-04-20T04:09:31.388Z,0
2017-04-20T04:10:41.724Z,0
2017-04-20T04:11:51.742Z,0
2017-04-20T04:13:02.103Z,0
2017-04-20T04:14:11.807Z,0
2017-04-20T04:15:22.140Z,0
2017-04-20T04:16:32.177Z,0
2017-04-20T04:17:42.494Z,0
2017-04-20T04:18:52.517Z,0
2017-04-20T04:20:02.843Z,0
2017-04-20T04:21:12.854Z,0
2017-04-20T04:22:22.568Z,0
2017-04-20T04:23:32.908Z,0
2017-04-20T04:24:43.280Z,0
2017-04-20T04:25:53.303Z,5
2017-04-20T04:27:03.637Z,5
2017-04-20T04:28:13.642Z,5
2017-04-20T04:29:23.338Z,5
2017-04-20T04:30:33.354Z,5
2017-04-20T04:31:43.692Z,5
2017-04-20T04:32:53.698Z,5
2017-04-20T04:34:04.069Z,5
2017-04-20T04:35:14.083Z,5
2017-04-20T04:36:24.396Z,5
2017-04-20T04:37:34.997Z,5
2017-04-20T04:38:45.769Z,5
2017-04-20T04:39:55.793Z,5
2017-04-20T04:41:05.889Z,5
2017-04-20T04:42:16.207Z,5
2017-04-20T04:43:26.223Z,5
2017-04-20T04:44:36.571Z,5
2017-04-20T04:45:46.940Z,10
2017-04-20T04:46:57.269Z,10
2017-04-20T04:48:07.610Z,10
2017-04-20T04:49:16.988Z,10
2017-04-20T04:50:27.304Z,10
2017-04-20T04:51:37.628Z,10
2017-04-20T04:52:47.952Z,10
2017-04-20T04:53:57.973Z,10
2017-04-20T04:55:08.001Z,10
2017-04-20T04:56:18.328Z,10
2017-04-20T04:57:28.692Z,10
2017-04-20T04:58:38.714Z,10
2017-04-20T04:59:48.726Z,10
2017-04-20T05:00:59.100Z,10
2017-04-20T05:02:09.120Z,15
2017-04-20T05:03:19.447Z,15
2017-04-20T05:04:29.766Z,15
2017-04-20T05:05:40.106Z,15
2017-04-20T05:06:50.447Z,15
2017-04-20T05:08:01.013Z,15
2017-04-20T05:09:11.348Z,15
2017-04-20T05:10:21.688Z,15
2017-04-20T05:11:32.025Z,15
2017-04-20T05:12:42.103Z,15
2017-04-20T05:13:52.428Z,15
2017-04-20T05:15:02.568Z,20
2017-04-20T05:16:12.899Z,20
2017-04-20T05:17:23.243Z,20
2017-04-20T05:18:33.560Z,20
2017-04-20T05:19:43.882Z,20
2017-04-20T05:20:53.904Z,20
2017-04-20T05:22:04.216Z,20
2017-04-20T05:23:14.531Z,20
2017-04-20T05:24:24.599Z,20
2017-04-20T05:25:34.609Z,25
2017-04-20T05:26:44.934Z,25
2017-04-20T05:27:55.293Z,25
2017-04-20T05:29:05.309Z,25
2017-04-20T05:30:15.327Z,25
2017-04-20T05:31:25.650Z,25
2017-04-20T05:32:35.988Z,25
2017-04-20T05:33:46.311Z,25
2017-04-20T05:34:56.333Z,25
2017-04-20T05:36:06.661Z,30
2017-04-20T05:37:16.673Z,30
2017-04-20T05:38:26.700Z,30
2017-04-20T05:39:37.031Z,30
2017-04-20T05:40:47.063Z,30
2017-04-20T05:41:57.395Z,30
2017-04-20T05:43:07.733Z,30
2017-04-20T05:44:18.061Z,30
2017-04-20T05:45:28.084Z,35
2017-04-20T05:46:38.422Z,35
2017-04-20T05:47:48.738Z,35
2017-04-20T05:48:59.070Z,35
2017-04-20T05:50:09.331Z,35
2017-04-20T05:51:19.343Z,35
2017-04-20T05:52:29.749Z,35
2017-04-20T05:53:40.070Z,35
2017-04-20T05:54:50.082Z,40
2017-04-20T05:56:00.417Z,40
2017-04-20T05:57:10.751Z,40
2017-04-20T05:58:21.074Z,40
2017-04-20T05:59:31.416Z,40
2017-04-20T06:00:41.751Z,40
2017-04-20T06:01:52.091Z,40
2017-04-20T06:03:02.405Z,40
2017-04-20T06:04:12.737Z,40
2017-04-20T06:05:22.793Z,40
2017-04-20T06:06:33.119Z,40
2017-04-20T06:07:43.441Z,40
2017-04-20T06:08:53.766Z,40
2017-04-20T06:10:04.091Z,40
2017-04-20T06:11:14.125Z,45
2017-04-20T06:12:24.465Z,45
2017-04-20T06:13:34.804Z,45
2017-04-20T06:14:44.818Z,45
2017-04-20T06:15:55.134Z,50
2017-04-20T06:17:05.467Z,50
2017-04-20T06:18:15.478Z,50
2017-04-20T06:19:25.503Z,55
2017-04-20T06:20:35.832Z,55
2017-04-20T06:21:46.157Z,55
2017-04-20T06:22:56.176Z,60
2017-04-20T06:24:06.531Z,60
2017-04-20T06:25:16.857Z,60
2017-04-20T06:26:27.309Z,60
2017-04-20T06:27:37.686Z,60
2017-04-20T06:28:48.072Z,65
2017-04-20T06:29:58.089Z,65
2017-04-20T06:31:08.417Z,65
2017-04-20T06:32:18.933Z,65
2017-04-20T06:33:29.376Z,65
2017-04-20T06:34:39.382Z,65
2017-04-20T06:35:49.422Z,65
2017-04-20T06:36:59.768Z,65
2017-04-20T06:38:10.086Z,65
2017-04-20T06:39:20.089Z,65
2017-04-20T06:40:30.118Z,65
2017-04-20T06:41:40.441Z,65
2017-04-20T06:42:50.775Z,65
2017-04-20T06:44:01.100Z,65
2017-04-20T06:45:11.142Z,65
2017-04-20T06:46:21.483Z,65
2017-04-20T06:47:31.821Z,65
2017-04-20T06:48:42.153Z,65
2017-04-20T06:49:52.499Z,65
2017-04-20T06:51:02.841Z,65
2017-04-20T06:52:13.172Z,65
2017-04-20T06:53:23.502Z,70
2017-04-20T06:54:33.824Z,70
2017-04-20T06:55:44.143Z,70
2017-04-20T06:56:54.465Z,70
2017-04-20T06:58:04.846Z,70
2017-04-20T06:59:15.179Z,70
2017-04-20T07:00:25.534Z,70
2017-04-20T07:01:35.567Z,70
2017-04-20T07:02:45.891Z,75
2017-04-20T07:03:56.237Z,75
2017-04-20T07:05:06.561Z,75
2017-04-20T07:06:16.594Z,75
2017-04-20T07:07:26.935Z,75
2017-04-20T07:08:37.458Z,75
2017-04-20T07:09:47.479Z,75
2017-04-20T07:10:57.795Z,75
2017-04-20T07:12:08.150Z,80
2017-04-20T07:13:18.461Z,80
2017-04-20T07:14:28.796Z,80
2017-04-20T07:15:39.125Z,80
2017-04-20T07:16:49.446Z,80
2017-04-20T07:17:59.456Z,80
2017-04-20T07:19:09.776Z,80
2017-04-20T07:20:19.790Z,80
2017-04-20T07:21:29.819Z,80
2017-04-20T07:22:40.141Z,80
2017-04-20T07:23:50.509Z,80
2017-04-20T07:25:00.850Z,80
2017-04-20T07:26:11.176Z,85
2017-04-20T07:27:21.205Z,85
2017-04-20T07:28:31.547Z,85
2017-04-20T07:29:41.915Z,85
2017-04-20T07:30:52.251Z,85
2017-04-20T07:32:02.585Z,85
2017-04-20T07:33:12.343Z,85
2017-04-20T07:34:22.656Z,80
2017-04-20T07:35:32.690Z,85
2017-04-20T07:36:42.703Z,85
2017-04-20T07:37:52.745Z,85
2017-04-20T07:39:02.461Z,85
2017-04-20T07:40:12.469Z,85
2017-04-20T07:41:22.502Z,85
2017-04-20T07:42:32.521Z,85
2017-04-20T07:43:42.888Z,85
2017-04-20T07:44:53.233Z,90
2017-04-20T07:46:03.238Z,85
2017-04-20T07:47:13.562Z,85
2017-04-20T07:48:24.018Z,80
2017-04-20T07:49:34.367Z,85
2017-04-20T07:50:44.656Z,85
2017-04-20T07:51:55.161Z,85
2017-04-20T07:53:05.178Z,85
2017-04-20T07:54:15.190Z,90
2017-04-20T07:55:25.214Z,85
2017-04-20T07:56:35.220Z,85
2017-04-20T07:57:45.244Z,85
2017-04-20T07:58:54.962Z,85
2017-04-20T08:00:05.302Z,85
2017-04-20T08:01:15.614Z,85
2017-04-20T08:02:25.621Z,90
2017-04-20T08:03:35.949Z,90
2017-04-20T08:04:45.984Z,90
2017-04-20T08:05:56.314Z,90
2017-04-20T08:07:06.645Z,90
2017-04-20T08:08:16.695Z,95
2017-04-20T08:09:27.022Z,95
2017-04-20T08:10:37.363Z,100
2017-04-20T08:11:47.687Z,95
2017-04-20T08:12:58.030Z,95
2017-04-20T08:14:08.360Z,95
2017-04-20T08:15:18.705Z,95
2017-04-20T08:16:29.035Z,100
2017-04-20T08:17:39.346Z,105
2017-04-20T08:18:49.383Z,110
2017-04-20T08:19:59.729Z,115
2017-04-20T08:21:09.470Z,115
2017-04-20T08:22:19.793Z,120
2017-04-20T08:23:29.846Z,120
2017-04-20T08:24:40.177Z,120
2017-04-20T08:25:50.198Z,120
2017-04-20T08:27:00.207Z,120
2017-04-20T08:28:10.527Z,120
2017-04-20T08:29:20.870Z,120
2017-04-20T08:30:30.893Z,120
2017-04-20T08:31:40.899Z,125
2017-04-20T08:32:51.226Z,125
2017-04-20T08:34:01.544Z,130
2017-04-20T08:35:11.884Z,125
2017-04-20T08:36:22.230Z,130
2017-04-20T08:37:32.258Z,130
2017-04-20T08:38:42.584Z,130
2017-04-20T08:39:52.606Z,135
2017-04-20T08:41:02.937Z,130
2017-04-20T08:42:13.263Z,130
2017-04-20T08:43:23.270Z,135
2017-04-20T08:44:33.279Z,130
2017-04-20T08:45:43.615Z,135
2017-04-20T08:46:53.946Z,135
2017-04-20T08:48:04.262Z,135
2017-04-20T08:49:14.595Z,140
2017-04-20T08:50:24.629Z,140
2017-04-20T08:51:34.963Z,140
2017-04-20T08:52:45.314Z,140
2017-04-20T08:53:55.652Z,145
2017-04-20T08:55:05.986Z,145
2017-04-20T08:56:16.313Z,150
2017-04-20T08:57:26.667Z,155
2017-04-20T08:58:36.993Z,155
2017-04-20T08:59:47.225Z,150
2017-04-20T09:00:57.572Z,155
2017-04-20T09:02:07.937Z,155
2017-04-20T09:03:17.957Z,155
2017-04-20T09:04:27.979Z,160
2017-04-20T09:05:38.012Z,160
2017-04-20T09:06:48.356Z,155
2017-04-20T09:07:58.709Z,160
2017-04-20T09:09:09.043Z,160
2017-04-20T09:10:19.384Z,160
2017-04-20T09:11:29.405Z,160
2017-04-20T09:12:39.740Z,160
2017-04-20T09:13:49.772Z,160
2017-04-20T09:15:00.097Z,170
2017-04-20T09:16:10.450Z,170
2017-04-20T09:17:20.475Z,175
2017-04-20T09:18:30.496Z,180
2017-04-20T09:19:40.518Z,185
2017-04-20T09:20:50.855Z,185
2017-04-20T09:22:01.171Z,185
2017-04-20T09:23:11.493Z,185
2017-04-20T09:24:21.829Z,185
2017-04-20T09:25:31.872Z,185
2017-04-20T09:26:42.240Z,190
2017-04-20T09:27:52.577Z,185
2017-04-20T09:29:02.939Z,185
2017-04-20T09:30:13.259Z,185
2017-04-20T09:31:23.279Z,185
2017-04-20T09:32:33.631Z,185
2017-04-20T09:33:43.974Z,180
2017-04-20T09:34:54.296Z,180
2017-04-20T09:36:04.001Z,180
2017-04-20T09:37:14.333Z,170
2017-04-20T09:38:24.672Z,165
2017-04-20T09:39:35.211Z,165
2017-04-20T09:40:45.861Z,160
2017-04-20T09:41:55.875Z,160
2017-04-20T09:43:05.943Z,155
2017-04-20T09:44:15.702Z,160
2017-04-20T09:45:26.117Z,165
2017-04-20T09:46:36.128Z,160
2017-04-20T09:47:46.451Z,145
2017-04-20T09:48:56.486Z,125
2017-04-20T09:50:06.816Z,120
2017-04-20T09:51:16.860Z,140
2017-04-20T09:52:26.891Z,160
2017-04-20T09:53:37.220Z,175
2017-04-20T09:54:47.541Z,185
2017-04-20T09:55:57.878Z,185
2017-04-20T09:57:07.601Z,185
2017-04-20T09:58:17.946Z,175
2017-04-20T09:59:28.281Z,170
2017-04-20T10:00:38.599Z,175
2017-04-20T10:01:48.830Z,185
2017-04-20T10:02:58.556Z,195
2017-04-20T10:04:08.887Z,205
2017-04-20T10:05:18.961Z,200
2017-04-20T10:06:29.299Z,205
2017-04-20T10:07:39.631Z,205
2017-04-20T10:08:49.641Z,210
2017-04-20T10:09:59.668Z,215
2017-04-20T10:11:09.697Z,215
2017-04-20T10:12:19.711Z,215
2017-04-20T10:13:30.058Z,215
2017-04-20T10:14:40.386Z,215
2017-04-20T10:15:50.481Z,215
2017-04-20T10:17:00.834Z,215
2017-04-20T10:18:11.169Z,215
2017-04-20T10:19:21.201Z,215
2017-04-20T10:20:30.894Z,210
2017-04-20T10:21:41.047Z,200
2017-04-20T10:22:51.615Z,195
2017-04-20T10:24:02.043Z,185
2017-04-20T10:25:12.389Z,185
2017-04-20T10:26:22.741Z,175
2017-04-20T10:27:32.763Z,155
2017-04-20T10:28:42.825Z,155
2017-04-20T10:29:52.851Z,155
2017-04-20T10:31:03.188Z,160
2017-04-20T10:32:13.512Z,170
2017-04-20T10:33:23.840Z,175
2017-04-20T10:34:34.197Z,175
2017-04-20T10:35:44.527Z,175
2017-04-20T10:36:54.843Z,175
2017-04-20T10:38:04.866Z,185
2017-04-20T10:39:14.576Z,185
2017-04-20T10:40:24.922Z,185
2017-04-20T10:41:35.269Z,190
2017-04-20T10:42:45.267Z,190
2017-04-20T10:43:55.591Z,195
2017-04-20T10:45:05.612Z,185
2017-04-20T10:46:15.629Z,185
2017-04-20T10:47:25.667Z,190
2017-04-20T10:48:35.686Z,190
2017-04-20T10:49:46.024Z,190
2017-04-20T10:50:56.378Z,200
2017-04-20T10:52:06.705Z,200
2017-04-20T10:53:17.030Z,200
2017-04-20T10:54:27.362Z,195
2017-04-20T10:55:37.702Z,200
2017-04-20T10:56:48.025Z,200
2017-04-20T10:57:58.448Z,205
2017-04-20T10:59:08.464Z,205
2017-04-20T11:00:18.175Z,205
2017-04-20T11:01:28.659Z,205
2017-04-20T11:02:38.993Z,210
2017-04-20T11:03:49.336Z,210
2017-04-20T11:04:59.357Z,220
2017-04-20T11:06:09.376Z,230
2017-04-20T11:07:19.388Z,240
2017-04-20T11:08:29.711Z,240
2017-04-20T11:09:39.455Z,245
2017-04-20T11:10:49.479Z,255
2017-04-20T11:11:59.498Z,255
2017-04-20T11:13:09.845Z,250
2017-04-20T11:14:20.162Z,245
2017-04-20T11:15:30.488Z,235
2017-04-20T11:16:40.205Z,240
2017-04-20T11:17:50.541Z,235
2017-04-20T11:19:00.877Z,235
2017-04-20T11:20:10.895Z,240
2017-04-20T11:21:21.220Z,245
2017-04-20T11:22:31.546Z,250
2017-04-20T11:23:41.860Z,265
2017-04-20T11:24:51.586Z,275
2017-04-20T11:26:01.930Z,290
2017-04-20T11:27:12.251Z,295
2017-04-20T11:28:22.262Z,295
2017-04-20T11:29:32.605Z,295
2017-04-20T11:30:42.936Z,295
2017-04-20T11:31:53.270Z,295
2017-04-20T11:33:03.608Z,290
2017-04-20T11:34:13.620Z,290
2017-04-20T11:35:23.205Z,280
2017-04-20T11:36:32.928Z,275
2017-04-20T11:37:42.937Z,250
2017-04-20T11:38:53.291Z,215
2017-04-20T11:40:03.649Z,195
2017-04-20T11:41:14.000Z,205
2017-04-20T11:42:24.372Z,215
2017-04-20T11:43:34.724Z,205
2017-04-20T11:44:45.127Z,210
2017-04-20T11:45:54.818Z,220
2017-04-20T11:47:04.839Z,220
2017-04-20T11:48:15.172Z,225
2017-04-20T11:49:25.493Z,260
2017-04-20T11:50:35.825Z,260
2017-04-20T11:51:46.151Z,270
2017-04-20T11:52:56.188Z,275
2017-04-20T11:54:06.227Z,275
2017-04-20T11:55:16.556Z,260
2017-04-20T11:56:26.290Z,255
2017-04-20T11:57:36.338Z,255
2017-04-20T11:58:46.355Z,260
2017-04-20T11:59:56.691Z,250
2017-04-20T12:01:06.719Z,240
2017-04-20T12:02:17.062Z,245
2017-04-20T12:03:27.419Z,260
2017-04-20T12:04:37.421Z,270
2017-04-20T12:05:47.743Z,280
2017-04-20T12:06:57.760Z,285
2017-04-20T12:08:08.084Z,290
2017-04-20T12:09:18.107Z,300
2017-04-20T12:10:28.434Z,315
2017-04-20T12:11:38.440Z,320
2017-04-20T12:12:48.463Z,305
2017-04-20T12:13:58.785Z,280
2017-04-20T12:15:09.210Z,245
2017-04-20T12:16:19.600Z,235
2017-04-20T12:17:29.635Z,240
2017-04-20T12:18:39.672Z,225
2017-04-20T12:19:49.688Z,220
2017-04-20T12:21:00.008Z,220
2017-04-20T12:22:10.311Z,240
2017-04-20T12:23:20.647Z,255
2017-04-20T12:24:31.018Z,260
2017-04-20T12:25:41.336Z,260
2017-04-20T12:26:51.375Z,250
2017-04-20T12:28:01.399Z,255
2017-04-20T12:29:11.426Z,260
2017-04-20T12:30:21.751Z,260
2017-04-20T12:31:32.088Z,265
2017-04-20T12:32:42.438Z,270
2017-04-20T12:33:52.450Z,270
2017-04-20T12:35:02.761Z,275
2017-04-20T12:36:12.775Z,265
2017-04-20T12:37:23.125Z,255
2017-04-20T12:38:32.816Z,230
2017-04-20T12:39:43.138Z,210
2017-04-20T12:40:53.479Z,200
2017-04-20T12:42:03.491Z,190
2017-04-20T12:43:13.578Z,175
2017-04-20T12:44:23.937Z,170
2017-04-20T12:45:34.285Z,170
2017-04-20T12:46:44.616Z,165
2017-04-20T12:47:54.639Z,170
2017-04-20T12:49:05.005Z,185
2017-04-20T12:50:15.332Z,205
2017-04-20T12:51:25.673Z,215
2017-04-20T12:52:35.692Z,205
2017-04-20T12:53:46.028Z,180
2017-04-20T12:54:56.101Z,150
2017-04-20T12:56:06.421Z,130
2017-04-20T12:57:16.138Z,110
2017-04-20T12:58:26.494Z,115
2017-04-20T12:59:36.358Z,135
2017-04-20T13:00:46.466Z,170
2017-04-20T13:01:56.972Z,220
2017-04-20T13:03:07.091Z,250
2017-04-20T13:04:16.878Z,265
2017-04-20T13:05:27.375Z,265
2017-04-20T13:06:37.710Z,270
2017-04-20T13:07:47.415Z,270
2017-04-20T13:08:57.120Z,275
2017-04-20T13:10:07.458Z,280
2017-04-20T13:11:17.483Z,290
2017-04-20T13:12:27.820Z,285
2017-04-20T13:13:37.845Z,290
2017-04-20T13:14:47.881Z,295
2017-04-20T13:15:58.220Z,285
2017-04-20T13:17:08.553Z,280
2017-04-20T13:18:18.574Z,280
2017-04-20T13:19:28.266Z,275
2017-04-20T13:20:38.613Z,275
2017-04-20T13:21:48.947Z,275
2017-04-20T13:22:58.646Z,275
2017-04-20T13:24:09.002Z,290
2017-04-20T13:25:19.353Z,280
2017-04-20T13:26:29.375Z,285
2017-04-20T13:27:39.700Z,275
2017-04-20T13:28:49.735Z,285
2017-04-20T13:30:00.305Z,295
2017-04-20T13:31:10.003Z,295
2017-04-20T13:32:20.359Z,285
2017-04-20T13:33:30.931Z,270
2017-04-20T13:34:41.283Z,280
2017-04-20T13:35:51.640Z,285
2017-04-20T13:37:01.972Z,285
2017-04-20T13:38:12.388Z,285
2017-04-20T13:39:22.411Z,285
2017-04-20T13:40:32.841Z,275
2017-04-20T13:41:42.864Z,255
2017-04-20T13:42:53.374Z,235
2017-04-20T13:44:03.734Z,220
2017-04-20T13:45:14.075Z,195
2017-04-20T13:46:24.413Z,175
2017-04-20T13:47:34.756Z,155
2017-04-20T13:48:45.081Z,165
2017-04-20T13:49:55.419Z,175
2017-04-20T13:51:05.758Z,185
2017-04-20T13:52:15.458Z,180
2017-04-20T13:53:25.807Z,185
2017-04-20T13:54:36.146Z,185
2017-04-20T13:55:46.489Z,165
2017-04-20T13:56:56.842Z,160
2017-04-20T13:58:07.192Z,170
2017-04-20T13:59:17.523Z,195
2017-04-20T14:00:27.574Z,190
2017-04-20T14:01:37.902Z,185
2017-04-20T14:02:48.256Z,185
2017-04-20T14:03:58.274Z,190
2017-04-20T14:05:07.989Z,205
2017-04-20T14:06:17.710Z,215
2017-04-20T14:07:27.727Z,215
2017-04-20T14:08:38.052Z,215
2017-04-20T14:09:48.069Z,215
2017-04-20T14:10:58.105Z,205
2017-04-20T14:12:08.434Z,200
2017-04-20T14:13:18.465Z,190
2017-04-20T14:14:28.802Z,185
2017-04-20T14:15:39.123Z,180
2017-04-20T14:16:49.694Z,150
2017-04-20T14:18:00.041Z,140
2017-04-20T14:19:10.426Z,145
2017-04-20T14:20:20.750Z,165
2017-04-20T14:21:31.287Z,195
2017-04-20T14:22:41.003Z,220
2017-04-20T14:23:51.524Z,240
2017-04-20T14:25:01.562Z,265
2017-04-20T14:26:11.890Z,255
2017-04-20T14:27:22.211Z,230
2017-04-20T14:28:32.548Z,210
2017-04-20T14:29:42.588Z,185
2017-04-20T14:30:52.945Z,175
2017-04-20T14:32:03.288Z,180
2017-04-20T14:33:13.608Z,180
2017-04-20T14:34:23.647Z,175
2017-04-20T14:35:33.679Z,160
2017-04-20T14:36:44.020Z,140
2017-04-20T14:37:54.330Z,130
2017-04-20T14:39:04.673Z,120
2017-04-20T14:40:15.013Z,115
2017-04-20T14:41:25.377Z,110
2017-04-20T14:42:35.410Z,110
2017-04-20T14:43:45.753Z,95
2017-04-20T14:44:56.083Z,85
2017-04-20T14:46:06.445Z,75
2017-04-20T14:47:16.793Z,70
2017-04-20T14:48:27.136Z,60
2017-04-20T14:49:37.150Z,55
2017-04-20T14:50:47.485Z,45
2017-04-20T14:51:57.577Z,40
2017-04-20T14:53:07.903Z,40
2017-04-20T14:54:17.920Z,45
2017-04-20T14:55:28.281Z,45
2017-04-20T14:56:38.629Z,50
2017-04-20T14:57:48.973Z,50
2017-04-20T14:58:59.312Z,50
2017-04-20T15:00:09.615Z,55
2017-04-20T15:01:19.636Z,60
2017-04-20T15:02:29.673Z,65
2017-04-20T15:03:40.014Z,80
2017-04-20T15:04:50.449Z,85
2017-04-20T15:06:00.470Z,100
2017-04-20T15:07:10.813Z,110
2017-04-20T15:08:21.167Z,115
2017-04-20T15:09:31.509Z,120
2017-04-20T15:10:41.838Z,125
2017-04-20T15:11:52.185Z,130
2017-04-20T15:13:02.537Z,140
2017-04-20T15:14:12.902Z,145
2017-04-20T15:15:22.941Z,150
2017-04-20T15:16:32.964Z,155
2017-04-20T15:17:42.998Z,155
2017-04-20T15:18:53.333Z,155
2017-04-20T15:20:03.663Z,160
2017-04-20T15:21:13.715Z,165
2017-04-20T15:22:24.054Z,165
2017-04-20T15:23:34.103Z,165
2017-04-20T15:24:44.131Z,160
2017-04-20T15:25:54.467Z,155
2017-04-20T15:27:04.848Z,145
2017-04-20T15:28:14.890Z,135
2017-04-20T15:29:25.224Z,115
2017-04-20T15:30:35.578Z,110
2017-04-20T15:31:45.906Z,110
2017-04-20T15:32:55.977Z,105
2017-04-20T15:34:06.322Z,105
2017-04-20T15:35:16.354Z,100
2017-04-20T15:36:26.718Z,95
2017-04-20T15:37:37.038Z,90
2017-04-20T15:38:47.363Z,90
2017-04-20T15:39:57.705Z,85
2017-04-20T15:41:07.435Z,80
2017-04-20T15:42:17.780Z,80
2017-04-20T15:43:27.823Z,75
2017-04-20T15:44:37.970Z,75
2017-04-20T15:45:48.398Z,75
2017-04-20T15:46:58.767Z,70
2017-04-20T15:48:08.786Z,75
2017-04-20T15:49:19.282Z,75
2017-04-20T15:50:29.622Z,90
2017-04-20T15:51:39.662Z,90
2017-04-20T15:52:50.000Z,95
2017-04-20T15:54:00.333Z,100
2017-04-20T15:55:10.673Z,100
2017-04-20T15:56:20.994Z,110
2017-04-20T15:57:31.014Z,110
2017-04-20T15:58:40.726Z,120
2017-04-20T15:59:51.066Z,120
2017-04-20T16:01:01.398Z,120
2017-04-20T16:02:11.425Z,120
2017-04-20T16:03:21.762Z,120
2017-04-20T16:04:32.119Z,115
2017-04-20T16:05:42.135Z,110
2017-04-20T16:06:52.165Z,110
2017-04-20T16:08:02.544Z,105
2017-04-20T16:09:12.578Z,100
2017-04-20T16:10:22.936Z,90
2017-04-20T16:11:33.284Z,80
2017-04-20T16:12:43.638Z,75
2017-04-20T16:13:53.675Z,75
2017-04-20T16:15:04.003Z,70
2017-04-20T16:16:14.322Z,70
2017-04-20T16:17:24.661Z,60
2017-04-20T16:18:34.983Z,55
2017-04-20T16:19:45.012Z,50
2017-04-20T16:20:55.369Z,50
2017-04-20T16:22:05.407Z,50
2017-04-20T16:23:15.742Z,50
2017-04-20T16:24:25.772Z,55
2017-04-20T16:25:35.790Z,55
2017-04-20T16:26:46.142Z,60
2017-04-20T16:27:55.892Z,60
2017-04-20T16:29:06.001Z,60
2017-04-20T16:30:16.045Z,60
2017-04-20T16:31:26.104Z,60
2017-04-20T16:32:36.505Z,55
2017-04-20T16:33:46.835Z,55
2017-04-20T16:34:57.175Z,55
2017-04-20T16:36:07.574Z,55
2017-04-20T16:37:17.978Z,60
2017-04-20T16:38:28.327Z,65
2017-04-20T16:39:38.668Z,65
2017-04-20T16:40:48.702Z,65
2017-04-20T16:41:59.076Z,60
2017-04-20T16:43:09.426Z,55
2017-04-20T16:44:19.759Z,50
2017-04-20T16:45:30.341Z,45
2017-04-20T16:46:40.402Z,40
2017-04-20T16:47:50.747Z,40
2017-04-20T16:49:01.080Z,35
2017-04-20T16:50:11.110Z,35
2017-04-20T16:51:21.165Z,35
2017-04-20T16:52:31.533Z,35
2017-04-20T16:53:41.859Z,40
2017-04-20T16:54:52.218Z,40
2017-04-20T16:56:02.268Z,40
2017-04-20T16:57:12.620Z,40
2017-04-20T16:58:22.968Z,40
2017-04-20T16:59:33.315Z,40
2017-04-20T17:00:43.673Z,40
2017-04-20T17:01:54.014Z,40
2017-04-20T17:03:04.344Z,40
2017-04-20T17:04:14.370Z,40
2017-04-20T17:05:24.709Z,40
2017-04-20T17:06:35.106Z,40